createdAt,value
2022-10-23T00:02:17.147Z,18.38
2022-10-23T00:04:46.995Z,18.32
2022-10-23T00:07:16.940Z,18.25
2022-10-23T00:09:47.024Z,18.25
2022-10-23T00:12:16.852Z,18.26
2022-10-23T00:14:46.697Z,18.19
2022-10-23T00:17:16.474Z,18.12
2022-10-23T00:19:46.210Z,18.10
2022-10-23T00:22:16.269Z,18.04
2022-10-23T00:24:46.101Z,17.98
2022-10-23T00:27:16.149Z,17.98
2022-10-23T00:29:48.898Z,17.99
2022-10-23T00:32:19.520Z,17.94
2022-10-23T00:34:49.585Z,17.91
2022-10-23T00:37:19.897Z,17.87
2022-10-23T00:39:49.888Z,17.87
2022-10-23T00:42:21.684Z,17.81
2022-10-23T00:44:53.082Z,17.81
2022-10-23T00:47:23.744Z,17.78
2022-10-23T00:49:53.837Z,17.79
2022-10-23T00:52:23.664Z,17.73
2022-10-23T00:54:53.483Z,17.70
2022-10-23T00:57:23.275Z,17.63
2022-10-23T00:59:53.377Z,17.54
2022-10-23T01:02:23.321Z,17.47
2022-10-23T01:04:53.234Z,17.39
2022-10-23T01:07:37.236Z,17.31
2022-10-23T01:10:56.123Z,17.40
2022-10-23T01:13:44.521Z,17.36
2022-10-23T01:16:31.005Z,17.26
2022-10-23T01:19:05.582Z,17.24
2022-10-23T01:22:00.504Z,17.19
2022-10-23T01:24:46.764Z,17.18
2022-10-23T01:27:23.986Z,17.13
2022-10-23T01:29:56.707Z,17.13
2022-10-23T01:33:08.985Z,17.12
2022-10-23T01:35:52.086Z,17.09
2022-10-23T01:38:29.276Z,17.05
2022-10-23T01:41:19.944Z,16.98
2022-10-23T01:44:22.579Z,16.95
2022-10-23T01:46:55.343Z,16.95
2022-10-23T01:49:26.442Z,16.92
2022-10-23T01:52:03.303Z,16.92
2022-10-23T01:54:37.773Z,16.88
2022-10-23T01:57:12.559Z,16.86
2022-10-23T01:59:54.376Z,16.82
2022-10-23T02:02:26.988Z,16.75
2022-10-23T02:05:09.407Z,16.71
2022-10-23T02:07:40.247Z,16.71
2022-10-23T02:10:11.290Z,16.69
2022-10-23T02:12:51.766Z,16.71
2022-10-23T02:15:24.960Z,16.69
2022-10-23T02:18:22.504Z,16.67
2022-10-23T02:21:05.507Z,16.59
2022-10-23T02:23:52.554Z,16.55
2022-10-23T02:26:50.266Z,16.55
2022-10-23T02:29:40.174Z,16.51
2022-10-23T02:32:12.541Z,16.47
2022-10-23T02:34:43.732Z,16.44
2022-10-23T02:37:14.469Z,16.41
2022-10-23T02:39:44.355Z,16.40
2022-10-23T02:42:49.436Z,16.40
2022-10-23T02:45:48.053Z,16.41
2022-10-23T02:48:44.511Z,16.35
2022-10-23T02:51:55.584Z,16.28
2022-10-23T02:54:45.376Z,16.22
2022-10-23T02:57:22.942Z,16.17
2022-10-23T03:00:10.967Z,16.14
2022-10-23T03:03:12.710Z,16.10
2022-10-23T03:05:46.890Z,16.09
2022-10-23T03:08:18.157Z,16.10
2022-10-23T03:13:26.247Z,16.11
2022-10-23T03:15:56.960Z,16.11
2022-10-23T03:18:30.717Z,16.09
2022-10-23T03:21:02.541Z,16.06
2022-10-23T03:23:36.061Z,15.99
2022-10-23T03:26:06.338Z,15.94
2022-10-23T03:28:44.361Z,15.90
2022-10-23T03:31:14.786Z,15.89
2022-10-23T03:33:44.901Z,15.89
2022-10-23T03:36:15.189Z,15.83
2022-10-23T03:38:46.904Z,15.76
2022-10-23T03:41:17.449Z,15.74
2022-10-23T03:43:47.563Z,15.70
2022-10-23T03:46:17.368Z,15.70
2022-10-23T03:48:47.407Z,15.63
2022-10-23T03:51:17.194Z,15.63
2022-10-23T03:53:47.018Z,15.59
2022-10-23T03:56:18.923Z,15.58
2022-10-23T03:59:08.935Z,15.53
2022-10-23T04:01:39.319Z,15.56
2022-10-23T04:04:10.808Z,15.50
2022-10-23T04:06:44.199Z,15.48
2022-10-23T04:09:15.445Z,15.49
2022-10-23T04:11:46.165Z,15.48
2022-10-23T04:14:16.220Z,15.45
2022-10-23T04:16:46.031Z,15.36
2022-10-23T04:19:16.448Z,15.32
2022-10-23T04:21:47.215Z,15.29
2022-10-23T04:24:17.880Z,15.25
2022-10-23T04:26:47.922Z,15.20
2022-10-23T04:29:17.688Z,15.22
2022-10-23T04:31:47.510Z,15.22
2022-10-23T04:34:23.501Z,15.22
2022-10-23T04:36:56.455Z,15.17
2022-10-23T04:39:26.487Z,15.17
2022-10-23T04:41:56.248Z,15.12
2022-10-23T04:44:27.980Z,15.02
2022-10-23T04:46:58.402Z,14.98
2022-10-23T04:49:28.809Z,14.97
2022-10-23T04:52:17.009Z,14.95
2022-10-23T04:55:22.363Z,14.87
2022-10-23T04:58:15.336Z,14.87
2022-10-23T05:00:48.127Z,14.84
2022-10-23T05:03:25.324Z,14.80
2022-10-23T05:05:57.213Z,14.80
2022-10-23T05:08:40.286Z,14.80
2022-10-23T05:11:33.376Z,14.74
2022-10-23T05:14:07.759Z,14.69
2022-10-23T05:16:58.076Z,14.67
2022-10-23T05:19:34.511Z,14.66
2022-10-23T05:22:06.716Z,14.63
2022-10-23T05:24:56.371Z,14.61
2022-10-23T05:27:28.409Z,14.60
2022-10-23T05:29:58.851Z,14.56
2022-10-23T05:32:34.284Z,14.53
2022-10-23T05:35:11.243Z,14.50
2022-10-23T05:37:45.230Z,14.47
2022-10-23T05:40:21.291Z,14.42
2022-10-23T05:42:55.287Z,14.42
2022-10-23T05:45:37.474Z,14.39
2022-10-23T05:48:41.122Z,14.39
2022-10-23T05:51:12.951Z,14.37
2022-10-23T05:53:51.710Z,14.34
2022-10-23T05:56:44.875Z,14.30
2022-10-23T05:59:23.493Z,14.23
2022-10-23T06:02:03.256Z,14.13
2022-10-23T06:04:49.449Z,14.13
2022-10-23T06:07:41.288Z,14.13
2022-10-23T06:10:14.200Z,14.08
2022-10-23T06:12:47.717Z,14.15
2022-10-23T06:15:20.722Z,14.06
2022-10-23T06:18:05.443Z,13.99
2022-10-23T06:20:41.760Z,14.04
2022-10-23T06:23:16.760Z,14.05
2022-10-23T06:26:06.196Z,14.02
2022-10-23T06:28:59.433Z,13.99
2022-10-23T06:31:29.867Z,14.01
2022-10-23T06:34:01.554Z,13.98
2022-10-23T06:36:33.245Z,13.95
2022-10-23T06:39:22.356Z,13.91
2022-10-23T06:42:15.600Z,13.85
2022-10-23T06:45:11.745Z,13.86
2022-10-23T06:47:47.863Z,13.88
2022-10-23T06:50:36.170Z,13.84
2022-10-23T06:53:10.767Z,13.77
2022-10-23T06:55:45.346Z,13.71
2022-10-23T06:58:16.511Z,13.71
2022-10-23T07:01:11.352Z,13.68
2022-10-23T07:03:42.449Z,13.64
2022-10-23T07:06:12.882Z,13.64
2022-10-23T07:08:43.531Z,13.64
2022-10-23T07:11:33.344Z,13.60
2022-10-23T07:14:04.281Z,13.60
2022-10-23T07:16:35.286Z,13.58
2022-10-23T07:19:08.307Z,13.58
2022-10-23T07:22:01.116Z,13.54
2022-10-23T07:24:45.967Z,13.46
2022-10-23T07:27:27.477Z,13.46
2022-10-23T07:30:01.363Z,13.48
2022-10-23T07:32:36.377Z,13.48
2022-10-23T07:35:25.538Z,13.46
2022-10-23T07:38:06.028Z,13.40
2022-10-23T07:40:40.304Z,13.40
2022-10-23T07:43:12.934Z,13.40
2022-10-23T07:45:43.649Z,13.40
2022-10-23T07:48:25.071Z,13.34
2022-10-23T07:51:04.618Z,13.34
2022-10-23T07:53:35.404Z,13.33
2022-10-23T07:56:30.957Z,13.31
2022-10-23T07:59:24.160Z,13.27
2022-10-23T08:01:57.682Z,13.23
2022-10-23T08:04:34.406Z,13.24
2022-10-23T08:07:15.152Z,13.20
2022-10-23T08:09:48.154Z,13.22
2022-10-23T08:12:18.902Z,13.22
2022-10-23T08:14:49.151Z,13.16
2022-10-23T08:17:19.063Z,13.17
2022-10-23T08:20:03.322Z,13.14
2022-10-23T08:22:40.643Z,13.13
2022-10-23T08:25:12.243Z,13.09
2022-10-23T08:27:42.824Z,13.03
2022-10-23T08:30:13.524Z,13.06
2022-10-23T08:32:43.527Z,13.03
2022-10-23T08:35:16.370Z,13.03
2022-10-23T08:37:46.535Z,13.00
2022-10-23T08:40:23.361Z,12.96
2022-10-23T08:43:22.834Z,12.97
2022-10-23T08:46:12.021Z,12.97
2022-10-23T08:49:38.292Z,12.97
2022-10-23T08:52:17.600Z,12.95
2022-10-23T08:55:15.129Z,12.95
2022-10-23T08:57:54.088Z,12.95
2022-10-23T09:00:24.360Z,12.99
2022-10-23T09:02:55.645Z,13.06
2022-10-23T09:06:04.584Z,13.09
2022-10-23T09:08:51.230Z,13.12
2022-10-23T09:11:37.868Z,13.12
2022-10-23T09:14:33.141Z,13.31
2022-10-23T09:17:30.352Z,13.88
2022-10-23T09:20:09.529Z,14.26
2022-10-23T09:22:40.275Z,14.53
2022-10-23T09:25:19.568Z,14.83
2022-10-23T09:27:56.126Z,15.11
2022-10-23T09:30:44.745Z,15.46
2022-10-23T09:33:16.381Z,15.65
2022-10-23T09:36:01.000Z,15.89
2022-10-23T09:38:31.715Z,16.18
2022-10-23T09:41:16.164Z,16.47
2022-10-23T09:43:46.357Z,16.75
2022-10-23T09:46:16.165Z,17.05
2022-10-23T09:48:46.575Z,17.31
2022-10-23T09:51:22.729Z,17.51
2022-10-23T09:53:56.911Z,17.81
2022-10-23T09:56:29.027Z,17.98
2022-10-23T09:59:06.855Z,18.19
2022-10-23T10:01:47.245Z,18.38
2022-10-23T10:04:40.172Z,18.63
2022-10-23T10:07:40.242Z,18.91
2022-10-23T10:10:16.740Z,19.18
2022-10-23T10:12:59.606Z,19.39
2022-10-23T10:15:50.281Z,19.58
2022-10-23T10:18:55.185Z,19.85
2022-10-23T10:21:39.659Z,20.12
2022-10-23T10:24:58.827Z,20.43
2022-10-23T10:27:57.732Z,20.88
2022-10-23T10:33:32.131Z,21.37
2022-10-23T10:39:05.894Z,21.88
2022-10-23T10:41:42.558Z,22.22
2022-10-23T10:44:27.851Z,22.46
2022-10-23T10:47:17.243Z,22.63
2022-10-23T10:49:56.932Z,22.69
2022-10-23T10:53:23.609Z,22.96
2022-10-23T10:55:59.471Z,22.92
2022-10-23T10:58:42.255Z,22.83
2022-10-23T11:01:38.839Z,23.48
2022-10-23T11:04:34.630Z,23.44
2022-10-23T11:07:11.025Z,23.17
2022-10-23T11:09:41.674Z,23.45
2022-10-23T11:12:38.277Z,23.40
2022-10-23T11:15:16.685Z,23.27
2022-10-23T11:17:52.391Z,23.44
2022-10-23T11:20:52.457Z,23.66
2022-10-23T11:24:02.408Z,23.93
2022-10-23T11:26:32.091Z,24.53
2022-10-23T11:29:34.322Z,24.33
2022-10-23T11:32:10.829Z,24.29
2022-10-23T11:34:47.059Z,24.65
2022-10-23T11:37:21.956Z,25.26
2022-10-23T11:40:19.980Z,25.15
2022-10-23T11:42:51.782Z,25.46
2022-10-23T11:45:39.655Z,26.01
2022-10-23T11:48:15.982Z,27.03
2022-10-23T11:50:45.986Z,27.23
2022-10-23T11:53:33.453Z,26.95
2022-10-23T11:56:03.797Z,27.41
2022-10-23T11:58:49.320Z,28.04
2022-10-23T12:01:46.410Z,27.86
2022-10-23T12:04:16.260Z,27.40
2022-10-23T12:07:02.462Z,27.40
2022-10-23T12:09:56.012Z,27.22
2022-10-23T12:12:44.356Z,26.71
2022-10-23T12:15:17.224Z,26.38
2022-10-23T12:17:49.999Z,26.37
2022-10-23T12:20:37.880Z,27.08
2022-10-23T12:23:48.208Z,26.99
2022-10-23T12:26:43.982Z,27.23
2022-10-23T12:29:44.094Z,28.12
2022-10-23T12:32:48.777Z,28.26
2022-10-23T12:35:44.323Z,28.12
2022-10-23T12:38:17.330Z,27.64
2022-10-23T12:40:53.304Z,27.07
2022-10-23T12:43:31.916Z,27.37
2022-10-23T12:46:21.426Z,27.58
2022-10-23T12:48:57.819Z,28.08
2022-10-23T12:51:38.467Z,28.70
2022-10-23T12:54:20.511Z,28.53
2022-10-23T12:56:50.725Z,28.36
2022-10-23T12:59:31.717Z,28.68
2022-10-23T13:02:02.619Z,29.08
2022-10-23T13:04:35.994Z,28.67
2022-10-23T13:07:06.298Z,28.52
2022-10-23T13:09:44.342Z,29.41
2022-10-23T13:12:26.315Z,30.38
2022-10-23T13:15:02.300Z,30.31
2022-10-23T13:17:46.862Z,30.04
2022-10-23T13:20:20.020Z,29.89
2022-10-23T13:23:18.805Z,30.69
2022-10-23T13:26:07.430Z,30.35
2022-10-23T13:28:45.595Z,30.38
2022-10-23T13:31:15.831Z,30.38
2022-10-23T13:34:08.011Z,30.00
2022-10-23T13:36:40.681Z,30.96
2022-10-23T13:39:15.352Z,29.87
2022-10-23T13:41:48.047Z,29.90
2022-10-23T13:44:23.802Z,29.99
2022-10-23T13:46:54.216Z,29.93
2022-10-23T13:49:24.513Z,29.74
2022-10-23T13:51:56.730Z,29.55
2022-10-23T13:54:29.821Z,29.65
2022-10-23T13:57:00.008Z,29.83
2022-10-23T13:59:30.181Z,29.93
2022-10-23T14:02:00.819Z,29.56
2022-10-23T14:04:31.156Z,29.69
2022-10-23T14:07:00.905Z,29.79
2022-10-23T14:09:30.775Z,30.20
2022-10-23T14:12:00.525Z,29.66
2022-10-23T14:14:30.362Z,29.97
2022-10-23T14:17:00.595Z,30.51
2022-10-23T14:19:30.405Z,30.58
2022-10-23T14:22:00.222Z,30.45
2022-10-23T14:24:29.997Z,31.19
2022-10-23T14:27:00.780Z,30.81
2022-10-23T14:29:30.646Z,31.04
2022-10-23T14:32:00.412Z,32.17
2022-10-23T14:34:30.270Z,33.18
2022-10-23T14:37:14.936Z,31.98
2022-10-23T14:39:49.586Z,31.09
2022-10-23T14:42:20.912Z,30.76
2022-10-23T14:44:51.405Z,30.65
2022-10-23T14:47:21.491Z,31.13
2022-10-23T14:49:54.432Z,30.79
2022-10-23T14:52:26.012Z,31.23
2022-10-23T14:54:56.407Z,33.03
2022-10-23T14:57:26.295Z,33.23
2022-10-23T14:59:56.054Z,32.39
2022-10-23T15:02:25.824Z,32.02
2022-10-23T15:04:56.035Z,32.07
2022-10-23T15:07:25.861Z,32.73
2022-10-23T15:09:56.717Z,32.18
2022-10-23T15:12:27.173Z,32.08
2022-10-23T15:14:56.939Z,32.40
2022-10-23T15:17:26.789Z,33.44
2022-10-23T15:19:56.975Z,33.85
2022-10-23T15:22:26.781Z,33.03
2022-10-23T15:24:57.954Z,32.18
2022-10-23T15:27:28.177Z,32.31
2022-10-23T15:29:58.007Z,32.14
2022-10-23T15:32:27.806Z,32.36
2022-10-23T15:35:00.349Z,32.69
2022-10-23T15:37:30.623Z,32.22
2022-10-23T15:40:02.378Z,33.28
2022-10-23T15:42:32.950Z,33.48
2022-10-23T15:45:02.729Z,32.35
2022-10-23T15:47:32.992Z,32.21
2022-10-23T15:50:03.224Z,32.72
2022-10-23T15:52:33.004Z,32.53
2022-10-23T15:55:02.822Z,33.59
2022-10-23T15:57:33.153Z,33.57
2022-10-23T16:00:03.430Z,32.27
2022-10-23T16:02:39.258Z,32.49
2022-10-23T16:05:09.994Z,32.83
2022-10-23T16:07:40.045Z,33.13
2022-10-23T16:10:10.461Z,32.89
2022-10-23T16:12:40.798Z,32.89
2022-10-23T16:15:10.988Z,32.75
2022-10-23T16:17:41.039Z,32.45
2022-10-23T16:20:11.524Z,32.07
2022-10-23T16:22:44.167Z,32.39
2022-10-23T16:25:15.691Z,32.89
2022-10-23T16:27:46.067Z,33.31
2022-10-23T16:30:17.442Z,33.35
2022-10-23T16:32:47.842Z,33.10
2022-10-23T16:35:18.120Z,32.46
2022-10-23T16:38:00.163Z,32.24
2022-10-23T16:40:30.366Z,32.79
2022-10-23T16:43:18.277Z,33.71
2022-10-23T16:46:15.847Z,34.67
2022-10-23T16:48:46.372Z,34.53
2022-10-23T16:51:18.955Z,33.69
2022-10-23T16:53:50.176Z,32.72
2022-10-23T16:56:25.108Z,33.72
2022-10-23T16:58:55.514Z,35.30
2022-10-23T17:01:28.304Z,36.00
2022-10-23T17:03:58.555Z,35.86
2022-10-23T17:06:31.332Z,36.27
2022-10-23T17:09:02.935Z,36.63
2022-10-23T17:11:40.883Z,36.74
2022-10-23T17:14:15.914Z,37.03
2022-10-23T17:16:53.027Z,36.82
2022-10-23T17:19:43.909Z,35.73
2022-10-23T17:22:16.371Z,34.60
2022-10-23T17:24:48.973Z,34.67
2022-10-23T17:27:22.256Z,33.59
2022-10-23T17:29:52.319Z,33.59
2022-10-23T17:34:56.887Z,33.61
2022-10-23T17:37:27.633Z,34.33
2022-10-23T17:40:01.010Z,34.76
2022-10-23T17:42:31.897Z,33.41
2022-10-23T17:45:01.719Z,32.75
2022-10-23T17:47:31.945Z,34.16
2022-10-23T17:50:02.067Z,34.91
2022-10-23T17:52:31.829Z,34.40
2022-10-23T17:55:03.504Z,32.95
2022-10-23T17:57:33.054Z,32.89
2022-10-23T18:00:04.978Z,32.62
2022-10-23T18:02:42.250Z,32.40
2022-10-23T18:05:12.413Z,33.17
2022-10-23T18:07:42.471Z,32.75
2022-10-23T18:10:13.129Z,32.07
2022-10-23T18:12:43.842Z,31.98
2022-10-23T18:15:14.728Z,31.54
2022-10-23T18:17:44.898Z,31.39
2022-10-23T18:20:18.257Z,31.25
2022-10-23T18:22:48.454Z,31.41
2022-10-23T18:25:19.011Z,30.93
2022-10-23T18:27:49.633Z,31.53
2022-10-23T18:30:19.543Z,32.00
2022-10-23T18:32:49.314Z,31.25
2022-10-23T18:35:19.241Z,30.57
2022-10-23T18:37:49.603Z,30.74
2022-10-23T18:40:19.953Z,31.08
2022-10-23T18:42:50.975Z,31.37
2022-10-23T18:45:22.830Z,31.53
2022-10-23T18:47:53.586Z,31.61
2022-10-23T18:50:23.715Z,31.46
2022-10-23T18:52:54.009Z,31.30
2022-10-23T18:55:24.872Z,30.85
2022-10-23T18:57:55.203Z,30.98
2022-10-23T19:00:24.970Z,31.00
2022-10-23T19:02:55.220Z,30.42
2022-10-23T19:05:25.159Z,30.13
2022-10-23T19:07:56.513Z,29.72
2022-10-23T19:10:30.073Z,29.45
2022-10-23T19:13:00.267Z,29.41
2022-10-23T19:15:30.355Z,29.05
2022-10-23T19:18:00.877Z,29.24
2022-10-23T19:20:32.188Z,29.19
2022-10-23T19:23:03.447Z,29.11
2022-10-23T19:25:37.084Z,28.71
2022-10-23T19:28:07.730Z,28.67
2022-10-23T19:30:37.632Z,28.54
2022-10-23T19:33:07.572Z,28.31
2022-10-23T19:35:37.467Z,28.35
2022-10-23T19:38:07.996Z,28.60
2022-10-23T19:40:38.805Z,28.32
2022-10-23T19:43:09.829Z,28.23
2022-10-23T19:45:39.829Z,28.37
2022-10-23T19:48:09.706Z,28.37
2022-10-23T19:50:39.530Z,28.42
2022-10-23T19:53:09.947Z,28.39
2022-10-23T19:55:39.929Z,28.35
2022-10-23T19:58:10.138Z,28.32
2022-10-23T20:00:39.937Z,28.08
2022-10-23T20:03:09.743Z,27.92
2022-10-23T20:05:39.616Z,27.96
2022-10-23T20:08:09.414Z,27.91
2022-10-23T20:10:43.969Z,27.62
2022-10-23T20:13:19.756Z,27.58
2022-10-23T20:15:50.477Z,27.48
2022-10-23T20:18:20.254Z,27.37
2022-10-23T20:20:50.375Z,27.36
2022-10-23T20:23:20.232Z,27.22
2022-10-23T20:25:50.585Z,27.02
2022-10-23T20:28:20.480Z,26.87
2022-10-23T20:30:50.236Z,26.90
2022-10-23T20:33:20.045Z,26.78
2022-10-23T20:35:49.966Z,26.65
2022-10-23T20:38:19.873Z,26.51
2022-10-23T20:40:50.881Z,26.49
2022-10-23T20:43:20.854Z,26.55
2022-10-23T20:45:51.227Z,26.42
2022-10-23T20:48:21.573Z,26.28
2022-10-23T20:50:51.806Z,26.20
2022-10-23T20:53:21.572Z,26.05
2022-10-23T20:55:51.359Z,25.90
2022-10-23T20:58:21.160Z,25.67
2022-10-23T21:03:26.390Z,25.07
2022-10-23T21:05:56.600Z,24.81
2022-10-23T21:08:26.438Z,24.74
2022-10-23T21:10:56.321Z,24.61
2022-10-23T21:13:26.358Z,24.49
2022-10-23T21:15:56.844Z,24.49
2022-10-23T21:18:45.039Z,24.44
2022-10-23T21:21:22.433Z,24.24
2022-10-23T21:23:55.246Z,24.06
2022-10-23T21:26:25.990Z,23.99
2022-10-23T21:29:16.927Z,23.89
2022-10-23T21:31:53.027Z,23.78
2022-10-23T21:34:25.666Z,23.59
2022-10-23T21:39:47.426Z,23.27
2022-10-23T21:42:17.952Z,23.10
2022-10-23T21:44:49.530Z,22.96
2022-10-23T21:47:19.518Z,22.82
2022-10-23T21:49:49.405Z,22.76
2022-10-23T21:52:19.963Z,22.60
2022-10-23T21:54:54.399Z,22.45
2022-10-23T21:57:24.734Z,22.19
2022-10-23T21:59:56.503Z,22.11
2022-10-23T22:02:27.328Z,22.01
2022-10-23T22:04:57.675Z,21.98
2022-10-23T22:10:02.224Z,21.78
2022-10-23T22:12:32.601Z,21.68
2022-10-23T22:15:02.826Z,21.57
2022-10-23T22:17:32.814Z,21.46
2022-10-23T22:20:02.630Z,21.34
2022-10-23T22:22:32.468Z,21.27
2022-10-23T22:25:02.648Z,21.23
2022-10-23T22:27:32.447Z,21.16
2022-10-23T22:30:04.940Z,21.05
2022-10-23T22:32:36.933Z,20.99
2022-10-23T22:35:07.736Z,20.91
2022-10-23T22:37:37.564Z,20.89
2022-10-23T22:40:08.610Z,20.86
2022-10-23T22:42:39.969Z,20.74
2022-10-23T22:45:10.987Z,20.63
2022-10-23T22:47:40.916Z,20.54
2022-10-23T22:50:11.831Z,20.48
2022-10-23T22:52:42.146Z,20.45
2022-10-23T22:55:12.846Z,20.34
2022-10-23T22:57:43.163Z,20.26
2022-10-23T23:00:13.845Z,20.26
2022-10-23T23:02:43.642Z,20.13
2022-10-23T23:05:14.751Z,20.03
2022-10-23T23:07:45.661Z,19.94
2022-10-23T23:10:15.681Z,19.92
2022-10-23T23:12:45.507Z,19.90
2022-10-23T23:15:15.315Z,19.83
2022-10-23T23:17:45.534Z,19.77
2022-10-23T23:20:15.980Z,19.75
2022-10-23T23:22:45.968Z,19.72
2022-10-23T23:25:16.321Z,19.63
2022-10-23T23:27:46.074Z,19.63
2022-10-23T23:30:16.338Z,19.55
2022-10-23T23:32:49.386Z,19.49
2022-10-23T23:35:21.605Z,19.45
2022-10-23T23:37:52.067Z,19.38
2022-10-23T23:40:22.343Z,19.31
2022-10-23T23:42:52.362Z,19.24
2022-10-23T23:45:22.534Z,19.18
2022-10-23T23:47:52.347Z,19.12
2022-10-23T23:50:22.605Z,19.11
2022-10-23T23:52:52.436Z,19.06
2022-10-23T23:55:22.341Z,19.01
2022-10-23T23:57:52.165Z,19.00
